createdAt,value
2023-05-17T00:00:49.949Z,5.78
2023-05-17T00:01:49.953Z,5.73
2023-05-17T00:02:49.974Z,5.71
2023-05-17T00:03:49.921Z,5.73
2023-05-17T00:04:49.935Z,5.46
2023-05-17T00:05:49.908Z,5.45
2023-05-17T00:06:49.891Z,5.50
2023-05-17T00:07:50.074Z,5.50
2023-05-17T00:08:49.865Z,5.43
2023-05-17T00:09:49.868Z,5.34
2023-05-17T00:10:49.861Z,5.22
2023-05-17T00:11:49.849Z,5.27
2023-05-17T00:12:49.826Z,5.31
2023-05-17T00:13:49.821Z,5.41
2023-05-17T00:14:49.804Z,5.34
2023-05-17T00:15:49.795Z,5.35
2023-05-17T00:16:49.797Z,5.23
2023-05-17T00:17:49.841Z,5.20
2023-05-17T00:18:49.966Z,5.17
2023-05-17T00:19:49.971Z,5.19
2023-05-17T00:20:49.748Z,5.14
2023-05-17T00:21:50.869Z,4.94
2023-05-17T00:22:50.848Z,4.96
2023-05-17T00:23:50.907Z,5.07
2023-05-17T00:24:50.830Z,5.17
2023-05-17T00:25:50.816Z,5.14
2023-05-17T00:26:50.814Z,5.19
2023-05-17T00:27:50.885Z,5.10
2023-05-17T00:28:50.789Z,5.17
2023-05-17T00:29:50.778Z,5.13
2023-05-17T00:30:50.772Z,5.14
2023-05-17T00:31:50.750Z,5.22
2023-05-17T00:32:50.766Z,5.12
2023-05-17T00:33:50.726Z,5.27
2023-05-17T00:34:50.750Z,5.16
2023-05-17T00:35:50.721Z,5.19
2023-05-17T00:36:50.703Z,5.19
2023-05-17T00:37:50.704Z,5.12
2023-05-17T00:38:50.685Z,5.07
2023-05-17T00:39:50.813Z,5.17
2023-05-17T00:40:50.678Z,5.10
2023-05-17T00:41:50.658Z,5.04
2023-05-17T00:42:50.646Z,5.22
2023-05-17T00:43:50.645Z,5.10
2023-05-17T00:44:50.652Z,5.09
2023-05-17T00:45:50.628Z,5.07
2023-05-17T00:46:50.612Z,5.07
2023-05-17T00:47:50.656Z,5.01
2023-05-17T00:48:50.660Z,5.04
2023-05-17T00:49:50.574Z,5.10
2023-05-17T00:50:50.564Z,5.07
2023-05-17T00:51:50.559Z,5.05
2023-05-17T00:52:50.542Z,5.07
2023-05-17T00:53:50.552Z,5.04
2023-05-17T00:54:50.532Z,5.04
2023-05-17T00:55:50.615Z,4.98
2023-05-17T00:56:50.507Z,5.01
2023-05-17T00:57:50.506Z,4.95
2023-05-17T00:58:50.572Z,5.04
2023-05-17T00:59:50.484Z,4.99
2023-05-17T01:00:50.483Z,4.98
2023-05-17T01:01:50.459Z,4.91
2023-05-17T01:02:50.508Z,4.92
2023-05-17T01:03:50.608Z,4.86
2023-05-17T01:04:50.482Z,4.89
2023-05-17T01:05:50.420Z,4.83
2023-05-17T01:06:50.420Z,4.88
2023-05-17T01:07:50.405Z,4.77
2023-05-17T01:08:50.399Z,4.73
2023-05-17T01:09:50.389Z,4.59
2023-05-17T01:10:50.378Z,4.61
2023-05-17T01:11:50.510Z,4.51
2023-05-17T01:12:50.366Z,4.52
2023-05-17T01:13:50.367Z,4.58
2023-05-17T01:14:50.329Z,4.64
2023-05-17T01:15:50.318Z,4.54
2023-05-17T01:16:50.332Z,4.52
2023-05-17T01:17:50.440Z,4.58
2023-05-17T01:18:50.412Z,4.58
2023-05-17T01:19:50.435Z,4.46
2023-05-17T01:20:50.265Z,4.58
2023-05-17T01:21:50.273Z,4.73
2023-05-17T01:22:50.264Z,4.52
2023-05-17T01:23:50.251Z,4.67
2023-05-17T01:24:50.224Z,4.70
2023-05-17T01:25:51.251Z,4.67
2023-05-17T01:26:50.224Z,4.73
2023-05-17T01:27:50.318Z,4.72
2023-05-17T01:28:50.197Z,4.75
2023-05-17T01:29:50.183Z,4.79
2023-05-17T01:30:50.201Z,4.61
2023-05-17T01:31:50.168Z,4.62
2023-05-17T01:32:50.187Z,4.65
2023-05-17T01:33:50.225Z,4.70
2023-05-17T01:34:50.133Z,4.54
2023-05-17T01:35:50.130Z,4.57
2023-05-17T01:36:50.113Z,4.64
2023-05-17T01:37:50.098Z,4.47
2023-05-17T01:38:50.090Z,4.51
2023-05-17T01:39:50.091Z,4.47
2023-05-17T01:40:50.079Z,4.47
2023-05-17T01:41:50.069Z,4.54
2023-05-17T01:42:50.056Z,4.51
2023-05-17T01:43:50.124Z,4.52
2023-05-17T01:44:50.036Z,4.47
2023-05-17T01:45:50.011Z,4.39
2023-05-17T01:46:49.993Z,4.44
2023-05-17T01:47:50.019Z,4.43
2023-05-17T01:48:50.005Z,4.43
2023-05-17T01:49:49.990Z,4.51
2023-05-17T01:50:49.953Z,4.59
2023-05-17T01:51:49.960Z,4.62
2023-05-17T01:52:49.952Z,4.64
2023-05-17T01:53:49.945Z,4.73
2023-05-17T01:54:49.934Z,4.76
2023-05-17T01:55:49.939Z,4.70
2023-05-17T01:56:49.919Z,4.76
2023-05-17T01:57:49.890Z,4.77
2023-05-17T01:58:49.887Z,4.62
2023-05-17T01:59:50.027Z,4.72
2023-05-17T02:00:49.866Z,4.61
2023-05-17T02:01:49.852Z,4.52
2023-05-17T02:02:49.854Z,4.44
2023-05-17T02:03:49.905Z,4.51
2023-05-17T02:04:49.855Z,4.58
2023-05-17T02:05:49.810Z,4.57
2023-05-17T02:06:49.811Z,4.62
2023-05-17T02:07:49.797Z,4.61
2023-05-17T02:08:49.793Z,4.62
2023-05-17T02:09:49.771Z,4.64
2023-05-17T02:10:49.762Z,4.55
2023-05-17T02:11:49.752Z,4.62
2023-05-17T02:12:49.747Z,4.57
2023-05-17T02:13:49.728Z,4.64
2023-05-17T02:14:49.718Z,4.51
2023-05-17T02:15:49.801Z,4.57
2023-05-17T02:16:49.701Z,4.67
2023-05-17T02:17:49.847Z,4.59
2023-05-17T02:18:49.845Z,4.73
2023-05-17T02:19:49.674Z,4.65
2023-05-17T02:20:49.667Z,4.62
2023-05-17T02:21:49.658Z,4.73
2023-05-17T02:22:49.674Z,4.67
2023-05-17T02:23:49.633Z,4.64
2023-05-17T02:24:49.645Z,4.61
2023-05-17T02:25:49.611Z,4.61
2023-05-17T02:26:49.625Z,4.59
2023-05-17T02:27:49.614Z,4.52
2023-05-17T02:28:49.587Z,4.69
2023-05-17T02:29:49.578Z,4.70
2023-05-17T02:30:49.578Z,4.59
2023-05-17T02:31:49.628Z,4.70
2023-05-17T02:32:49.650Z,4.72
2023-05-17T02:33:49.600Z,4.64
2023-05-17T02:34:49.532Z,4.73
2023-05-17T02:35:49.533Z,4.70
2023-05-17T02:36:49.518Z,4.70
2023-05-17T02:37:49.507Z,4.80
2023-05-17T02:38:49.494Z,4.70
2023-05-17T02:39:49.489Z,4.76
2023-05-17T02:40:49.506Z,4.86
2023-05-17T02:41:49.482Z,4.89
2023-05-17T02:42:49.455Z,4.92
2023-05-17T02:43:49.443Z,4.95
2023-05-17T02:44:49.439Z,4.98
2023-05-17T02:45:49.436Z,5.10
2023-05-17T02:46:49.439Z,5.02
2023-05-17T02:47:49.526Z,5.12
2023-05-17T02:48:49.391Z,5.20
2023-05-17T02:49:49.394Z,5.25
2023-05-17T02:50:49.385Z,5.30
2023-05-17T02:51:49.369Z,5.31
2023-05-17T02:52:49.355Z,5.35
2023-05-17T02:53:49.345Z,5.41
2023-05-17T02:54:49.342Z,5.38
2023-05-17T02:55:49.332Z,5.38
2023-05-17T02:56:49.312Z,5.37
2023-05-17T02:57:49.306Z,5.43
2023-05-17T02:58:49.302Z,5.49
2023-05-17T02:59:49.298Z,5.48
2023-05-17T03:00:49.284Z,5.56
2023-05-17T03:01:49.267Z,5.67
2023-05-17T03:02:49.346Z,5.64
2023-05-17T03:03:49.630Z,5.49
2023-05-17T03:04:49.269Z,5.56
2023-05-17T03:05:49.221Z,5.68
2023-05-17T03:06:49.229Z,5.60
2023-05-17T03:07:49.210Z,5.67
2023-05-17T03:08:49.215Z,5.71
2023-05-17T03:09:49.197Z,5.85
2023-05-17T03:10:49.211Z,5.73
2023-05-17T03:11:50.177Z,5.77
2023-05-17T03:12:49.160Z,5.82
2023-05-17T03:13:49.168Z,5.86
2023-05-17T03:14:49.152Z,5.86
2023-05-17T03:15:49.123Z,5.86
2023-05-17T03:16:49.129Z,5.81
2023-05-17T03:17:49.152Z,5.77
2023-05-17T03:18:49.253Z,5.73
2023-05-17T03:19:49.312Z,5.91
2023-05-17T03:20:49.075Z,5.88
2023-05-17T03:21:49.075Z,5.89
2023-05-17T03:22:49.070Z,5.96
2023-05-17T03:23:49.063Z,5.86
2023-05-17T03:24:49.042Z,5.78
2023-05-17T03:25:49.026Z,5.91
2023-05-17T03:26:49.030Z,5.83
2023-05-17T03:27:49.089Z,5.96
2023-05-17T03:28:49.011Z,6.04
2023-05-17T03:29:49.006Z,6.00
2023-05-17T03:30:48.987Z,5.98
2023-05-17T03:31:48.967Z,5.86
2023-05-17T03:32:49.043Z,5.82
2023-05-17T03:33:49.046Z,5.82
2023-05-17T03:34:48.947Z,5.85
2023-05-17T03:35:49.051Z,5.85
2023-05-17T03:36:48.924Z,6.04
2023-05-17T03:37:48.931Z,5.96
2023-05-17T03:38:48.893Z,5.83
2023-05-17T03:39:48.894Z,5.88
2023-05-17T03:40:48.879Z,6.00
2023-05-17T03:41:48.885Z,5.91
2023-05-17T03:42:48.870Z,6.01
2023-05-17T03:43:49.861Z,6.11
2023-05-17T03:44:48.863Z,6.01
2023-05-17T03:45:48.838Z,6.01
2023-05-17T03:46:48.845Z,5.98
2023-05-17T03:47:48.863Z,6.07
2023-05-17T03:48:48.881Z,6.16
2023-05-17T03:49:48.797Z,6.18
2023-05-17T03:50:48.804Z,6.21
2023-05-17T03:51:48.800Z,6.28
2023-05-17T03:52:48.784Z,6.32
2023-05-17T03:53:48.772Z,6.40
2023-05-17T03:54:48.751Z,6.30
2023-05-17T03:55:48.806Z,6.36
2023-05-17T03:56:48.788Z,6.36
2023-05-17T03:57:48.755Z,6.48
2023-05-17T03:58:48.806Z,6.43
2023-05-17T03:59:48.704Z,6.36
2023-05-17T04:00:48.732Z,6.43
2023-05-17T04:01:48.675Z,6.59
2023-05-17T04:02:49.691Z,6.59
2023-05-17T04:03:48.723Z,6.62
2023-05-17T04:04:48.694Z,6.63
2023-05-17T04:05:48.667Z,6.61
2023-05-17T04:06:48.642Z,6.66
2023-05-17T04:07:48.715Z,6.61
2023-05-17T04:08:48.625Z,6.61
2023-05-17T04:09:48.608Z,6.62
2023-05-17T04:10:48.609Z,6.53
2023-05-17T04:11:48.600Z,6.62
2023-05-17T04:12:48.578Z,6.59
2023-05-17T04:13:48.576Z,6.59
2023-05-17T04:14:48.562Z,6.62
2023-05-17T04:15:48.581Z,6.69
2023-05-17T04:16:48.552Z,6.68
2023-05-17T04:17:48.633Z,6.72
2023-05-17T04:18:48.609Z,6.81
2023-05-17T04:19:48.536Z,6.81
2023-05-17T04:20:48.511Z,6.94
2023-05-17T04:21:49.497Z,6.89
2023-05-17T04:22:48.480Z,6.91
2023-05-17T04:23:48.569Z,7.07
2023-05-17T04:24:48.494Z,7.08
2023-05-17T04:25:51.220Z,7.08
2023-05-17T04:26:48.480Z,7.12
2023-05-17T04:27:48.433Z,7.12
2023-05-17T04:28:48.432Z,7.05
2023-05-17T04:29:48.427Z,7.20
2023-05-17T04:30:48.403Z,7.20
2023-05-17T04:31:48.396Z,7.23
2023-05-17T04:32:48.462Z,7.27
2023-05-17T04:33:48.378Z,7.29
2023-05-17T04:34:48.374Z,7.24
2023-05-17T04:35:48.351Z,7.22
2023-05-17T04:36:48.340Z,7.20
2023-05-17T04:37:48.335Z,7.22
2023-05-17T04:38:48.336Z,7.29
2023-05-17T04:39:48.391Z,7.27
2023-05-17T04:40:48.310Z,7.31
2023-05-17T04:41:48.297Z,7.40
2023-05-17T04:42:48.285Z,7.47
2023-05-17T04:43:48.298Z,7.42
2023-05-17T04:44:48.287Z,7.50
2023-05-17T04:45:48.265Z,7.50
2023-05-17T04:46:48.327Z,7.50
2023-05-17T04:47:48.272Z,7.52
2023-05-17T04:48:48.368Z,7.56
2023-05-17T04:49:48.221Z,7.66
2023-05-17T04:50:48.211Z,7.77
2023-05-17T04:51:48.215Z,7.87
2023-05-17T04:52:48.198Z,7.84
2023-05-17T04:53:48.193Z,7.89
2023-05-17T04:54:48.170Z,8.08
2023-05-17T04:55:48.172Z,8.11
2023-05-17T04:56:48.147Z,8.11
2023-05-17T04:57:48.169Z,8.07
2023-05-17T04:58:48.134Z,8.18
2023-05-17T04:59:48.120Z,8.11
2023-05-17T05:00:48.118Z,8.17
2023-05-17T05:01:48.098Z,8.20
2023-05-17T05:02:48.166Z,8.36
2023-05-17T05:03:48.246Z,8.39
2023-05-17T05:04:48.108Z,8.48
2023-05-17T05:05:48.064Z,8.58
2023-05-17T05:06:48.077Z,8.55
2023-05-17T05:07:48.052Z,8.60
2023-05-17T05:08:48.028Z,8.60
2023-05-17T05:09:48.033Z,8.54
2023-05-17T05:10:48.016Z,8.60
2023-05-17T05:11:48.169Z,8.57
2023-05-17T05:12:48.043Z,8.58
2023-05-17T05:13:48.040Z,8.57
2023-05-17T05:14:47.988Z,8.65
2023-05-17T05:15:48.010Z,8.72
2023-05-17T05:16:48.012Z,8.83
2023-05-17T05:17:48.115Z,8.84
2023-05-17T05:18:48.120Z,8.83
2023-05-17T05:19:47.964Z,8.88
2023-05-17T05:20:47.963Z,8.84
2023-05-17T05:21:47.967Z,8.78
2023-05-17T05:22:47.917Z,8.69
2023-05-17T05:23:47.908Z,8.53
2023-05-17T05:24:47.893Z,8.63
2023-05-17T05:25:47.907Z,8.55
2023-05-17T05:26:47.860Z,8.48
2023-05-17T05:27:47.931Z,8.33
2023-05-17T05:28:47.860Z,8.30
2023-05-17T05:29:47.846Z,8.29
2023-05-17T05:30:47.855Z,8.39
2023-05-17T05:31:47.827Z,8.39
2023-05-17T05:32:47.871Z,8.47
2023-05-17T05:33:47.921Z,8.55
2023-05-17T05:34:47.809Z,8.51
2023-05-17T05:35:47.790Z,8.45
2023-05-17T05:36:47.789Z,8.36
2023-05-17T05:37:47.759Z,8.40
2023-05-17T05:38:47.741Z,8.47
2023-05-17T05:39:47.751Z,8.37
2023-05-17T05:40:47.726Z,8.47
2023-05-17T05:41:47.713Z,8.42
2023-05-17T05:42:47.706Z,8.51
2023-05-17T05:43:47.841Z,8.50
2023-05-17T05:44:47.698Z,8.60
2023-05-17T05:45:47.681Z,8.55
2023-05-17T05:46:47.650Z,8.58
2023-05-17T05:47:47.703Z,8.57
2023-05-17T05:48:47.702Z,8.68
2023-05-17T05:49:47.635Z,8.66
2023-05-17T05:50:47.619Z,8.79
2023-05-17T05:51:47.611Z,8.78
2023-05-17T05:52:47.586Z,8.84
2023-05-17T05:53:47.609Z,8.84
2023-05-17T05:54:47.571Z,8.83
2023-05-17T05:55:47.567Z,8.79
2023-05-17T05:56:47.569Z,8.94
2023-05-17T05:57:47.547Z,9.12
2023-05-17T05:58:47.553Z,9.25
2023-05-17T05:59:47.594Z,9.46
2023-05-17T06:00:47.518Z,9.46
2023-05-17T06:01:47.497Z,9.48
2023-05-17T06:02:47.534Z,9.56
2023-05-17T06:03:47.497Z,9.57
2023-05-17T06:04:47.473Z,9.56
2023-05-17T06:05:47.524Z,9.68
2023-05-17T06:06:47.579Z,9.78
2023-05-17T06:07:47.447Z,9.81
2023-05-17T06:08:47.438Z,9.89
2023-05-17T06:09:47.412Z,9.81
2023-05-17T06:10:47.412Z,9.75
2023-05-17T06:11:47.397Z,9.61
2023-05-17T06:12:47.395Z,9.68
2023-05-17T06:13:47.385Z,9.82
2023-05-17T06:14:47.374Z,9.91
2023-05-17T06:15:47.433Z,9.96
2023-05-17T06:16:47.362Z,9.91
2023-05-17T06:17:47.422Z,10.15
2023-05-17T06:18:48.755Z,10.18
2023-05-17T06:19:47.388Z,10.33
2023-05-17T06:20:47.292Z,10.26
2023-05-17T06:21:47.302Z,10.26
2023-05-17T06:22:47.295Z,10.52
2023-05-17T06:23:47.273Z,10.66
2023-05-17T06:24:47.262Z,10.92
2023-05-17T06:25:47.254Z,10.83
2023-05-17T06:26:47.244Z,10.94
2023-05-17T06:27:47.231Z,11.03
2023-05-17T06:28:47.227Z,11.17
2023-05-17T06:29:47.204Z,11.27
2023-05-17T06:30:47.224Z,11.29
2023-05-17T06:31:47.282Z,11.44
2023-05-17T06:32:47.248Z,11.46
2023-05-17T06:33:47.215Z,11.64
2023-05-17T06:34:47.162Z,11.74
2023-05-17T06:35:56.216Z,11.80
2023-05-17T06:36:49.147Z,11.75
2023-05-17T06:37:47.123Z,12.01
2023-05-17T06:38:47.110Z,12.12
2023-05-17T06:39:55.583Z,12.08
2023-05-17T06:40:49.090Z,12.26
2023-05-17T06:41:47.095Z,12.16
2023-05-17T06:42:47.081Z,12.30
2023-05-17T06:43:47.062Z,12.34
2023-05-17T06:44:47.066Z,12.56
2023-05-17T06:45:47.061Z,12.70
2023-05-17T06:46:47.052Z,12.51
2023-05-17T06:47:47.179Z,12.38
2023-05-17T06:48:50.780Z,12.38
2023-05-17T06:49:48.167Z,12.44
2023-05-17T06:50:47.025Z,12.44
2023-05-17T06:51:46.991Z,12.39
2023-05-17T06:52:46.980Z,12.49
2023-05-17T06:53:46.978Z,12.56
2023-05-17T06:54:46.958Z,12.60
2023-05-17T06:55:46.998Z,12.66
2023-05-17T06:56:46.971Z,12.66
2023-05-17T06:57:46.925Z,12.66
2023-05-17T06:58:46.907Z,12.60
2023-05-17T06:59:46.901Z,12.69
2023-05-17T07:00:46.922Z,12.59
2023-05-17T07:01:46.877Z,12.70
2023-05-17T07:02:47.734Z,12.54
2023-05-17T07:03:47.097Z,12.51
2023-05-17T07:04:46.925Z,12.46
2023-05-17T07:05:46.846Z,12.42
2023-05-17T07:06:46.837Z,12.46
2023-05-17T07:07:46.834Z,12.64
2023-05-17T07:08:46.809Z,12.59
2023-05-17T07:09:46.818Z,12.44
2023-05-17T07:10:46.792Z,12.48
2023-05-17T07:11:46.785Z,12.27
2023-05-17T07:12:46.790Z,12.15
2023-05-17T07:13:46.951Z,12.01
2023-05-17T07:14:46.897Z,12.12
2023-05-17T07:15:46.743Z,12.09
2023-05-17T07:16:46.733Z,12.09
2023-05-17T07:17:46.809Z,12.16
2023-05-17T07:18:46.819Z,12.33
2023-05-17T07:19:46.909Z,12.45
2023-05-17T07:20:46.695Z,12.37
2023-05-17T07:21:46.714Z,12.27
2023-05-17T07:22:46.693Z,12.16
2023-05-17T07:23:46.681Z,12.26
2023-05-17T07:24:46.729Z,12.31
2023-05-17T07:25:46.696Z,12.30
2023-05-17T07:26:46.636Z,12.45
2023-05-17T07:27:46.674Z,12.51
2023-05-17T07:28:46.629Z,12.62
2023-05-17T07:29:46.617Z,12.46
2023-05-17T07:30:46.662Z,12.51
2023-05-17T07:31:46.617Z,12.49
2023-05-17T07:40:33.611Z,12.54
2023-05-17T07:40:58.937Z,12.69
2023-05-17T07:43:46.435Z,12.87
2023-05-17T07:44:24.846Z,13.00
2023-05-17T07:45:24.934Z,13.40
2023-05-17T07:46:24.885Z,13.69
2023-05-17T07:47:25.492Z,14.14
2023-05-17T07:48:24.964Z,14.37
2023-05-17T07:54:19.318Z,14.75
2023-05-17T07:54:58.454Z,14.80
2023-05-17T07:55:58.667Z,14.86
2023-05-17T07:58:45.580Z,14.32
2023-05-17T07:59:25.043Z,14.24
2023-05-17T08:08:39.822Z,13.67
2023-05-17T08:09:39.930Z,13.62
2023-05-17T08:10:39.922Z,13.46
2023-05-17T08:11:39.922Z,13.59
2023-05-17T08:12:39.864Z,13.62
2023-05-17T08:18:00.868Z,13.36
2023-05-17T08:18:57.962Z,13.24
2023-05-17T08:19:57.846Z,13.20
2023-05-17T08:20:57.796Z,13.24
2023-05-17T08:22:02.022Z,13.65
2023-05-17T08:22:57.659Z,13.95
2023-05-17T08:23:58.288Z,14.37
2023-05-17T08:24:57.649Z,14.72
2023-05-17T08:25:57.647Z,15.31
2023-05-17T08:26:57.848Z,15.35
2023-05-17T08:27:57.605Z,15.52
2023-05-17T08:28:57.597Z,15.81
2023-05-17T08:29:57.609Z,16.27
2023-05-17T08:30:57.603Z,15.86
2023-05-17T08:31:57.563Z,15.64
2023-05-17T08:32:58.889Z,15.79
2023-05-17T08:33:58.738Z,15.93
2023-05-17T08:34:58.735Z,16.09
2023-05-17T08:35:58.686Z,16.41
2023-05-17T08:36:58.682Z,16.60
2023-05-17T08:37:58.696Z,17.00
2023-05-17T08:38:58.636Z,17.36
2023-05-17T08:39:58.738Z,17.50
2023-05-17T08:40:58.673Z,17.28
2023-05-17T08:41:58.604Z,17.22
2023-05-17T08:42:58.591Z,17.28
2023-05-17T08:43:58.668Z,17.17
2023-05-17T08:44:58.571Z,16.68
2023-05-17T08:45:58.631Z,16.30
2023-05-17T08:46:58.566Z,16.06
2023-05-17T08:47:58.674Z,16.00
2023-05-17T08:48:58.584Z,16.22
2023-05-17T08:49:58.539Z,16.40
2023-05-17T08:50:58.522Z,16.89
2023-05-17T08:51:58.559Z,17.15
2023-05-17T08:52:58.588Z,17.57
2023-05-17T08:53:59.496Z,17.81
2023-05-17T08:54:58.474Z,18.21
2023-05-17T08:55:58.452Z,18.19
2023-05-17T08:56:58.452Z,17.99
2023-05-17T08:57:58.480Z,17.41
2023-05-17T08:58:58.461Z,17.32
2023-05-17T08:59:58.431Z,17.18
2023-05-17T09:00:58.421Z,16.56
2023-05-17T09:01:58.409Z,16.58
2023-05-17T09:02:58.499Z,16.50
2023-05-17T09:03:58.389Z,16.70
2023-05-17T09:04:58.557Z,16.65
2023-05-17T09:05:58.507Z,16.60
2023-05-17T09:06:58.347Z,16.70
2023-05-17T09:07:58.323Z,17.00
2023-05-17T09:08:58.486Z,17.41
2023-05-17T09:09:58.292Z,17.35
2023-05-17T09:10:58.329Z,17.41
2023-05-17T09:11:58.293Z,17.51
2023-05-17T09:12:58.280Z,17.79
2023-05-17T09:13:58.265Z,17.97
2023-05-17T09:14:58.260Z,17.73
2023-05-17T09:15:58.255Z,17.87
2023-05-17T09:16:58.302Z,17.81
2023-05-17T09:18:01.815Z,17.66
2023-05-17T09:18:58.320Z,17.69
2023-05-17T09:19:58.364Z,17.74
2023-05-17T09:20:58.200Z,17.54
2023-05-17T09:21:58.209Z,17.48
2023-05-17T09:22:58.174Z,17.40
2023-05-17T09:24:06.476Z,17.51
2023-05-17T09:25:00.198Z,17.40
2023-05-17T09:25:58.158Z,17.18
2023-05-17T09:26:58.174Z,17.23
2023-05-17T09:27:58.117Z,17.06
2023-05-17T09:28:59.151Z,17.04
2023-05-17T09:29:58.103Z,16.98
2023-05-17T09:30:58.109Z,16.60
2023-05-17T09:31:58.102Z,16.52
2023-05-17T09:32:58.086Z,16.63
2023-05-17T09:33:58.124Z,16.56
2023-05-17T09:34:58.072Z,16.45
2023-05-17T09:35:58.076Z,16.48
2023-05-17T09:36:58.035Z,16.40
2023-05-17T09:37:58.031Z,16.42
2023-05-17T09:38:58.039Z,16.48
2023-05-17T09:39:57.992Z,16.38
2023-05-17T09:40:58.037Z,16.85
2023-05-17T09:41:57.989Z,17.48
2023-05-17T09:42:57.977Z,17.99
2023-05-17T09:43:57.985Z,18.59
2023-05-17T09:44:57.960Z,18.58
2023-05-17T09:45:57.963Z,18.10
2023-05-17T09:46:57.924Z,18.31
2023-05-17T09:47:57.997Z,18.57
2023-05-17T09:48:57.970Z,18.90
2023-05-17T09:49:57.920Z,18.29
2023-05-17T09:50:57.913Z,18.24
2023-05-17T09:51:57.872Z,18.59
2023-05-17T09:52:57.893Z,18.68
2023-05-17T09:53:57.853Z,18.62
2023-05-17T09:54:57.879Z,18.94
2023-05-17T09:55:57.858Z,19.13
2023-05-17T09:56:57.827Z,18.92
2023-05-17T09:57:57.833Z,19.06
2023-05-17T09:58:57.877Z,18.94
2023-05-17T09:59:57.853Z,18.82
2023-05-17T10:00:57.816Z,18.72
2023-05-17T10:01:57.797Z,18.86
2023-05-17T10:02:57.850Z,18.58
2023-05-17T10:03:57.805Z,18.39
2023-05-17T10:04:57.823Z,18.13
2023-05-17T10:05:57.739Z,18.31
2023-05-17T10:06:57.724Z,17.97
2023-05-17T10:07:57.717Z,18.10
2023-05-17T10:08:57.734Z,18.03
2023-05-17T10:09:57.727Z,18.33
2023-05-17T10:10:57.701Z,18.46
2023-05-17T10:11:57.699Z,18.22
2023-05-17T10:12:57.709Z,18.03
2023-05-17T10:13:57.697Z,17.88
2023-05-17T10:14:57.823Z,17.73
2023-05-17T10:15:57.664Z,17.91
2023-05-17T10:16:57.658Z,18.03
2023-05-17T10:17:57.752Z,18.34
2023-05-17T10:18:57.751Z,18.76
2023-05-17T10:19:57.755Z,18.84
2023-05-17T10:20:57.619Z,18.77
2023-05-17T10:22:02.300Z,19.18
2023-05-17T10:22:58.817Z,19.43
2023-05-17T10:23:58.579Z,19.88
2023-05-17T10:24:57.565Z,20.38
2023-05-17T10:25:57.557Z,20.66
2023-05-17T10:26:57.552Z,20.62
2023-05-17T10:27:57.548Z,20.39
2023-05-17T10:28:57.551Z,19.57
2023-05-17T10:29:57.509Z,18.57
2023-05-17T10:30:57.511Z,17.64
2023-05-17T10:31:57.513Z,17.47
2023-05-17T10:33:00.852Z,17.48
2023-05-17T10:33:57.582Z,17.70
2023-05-17T10:35:10.519Z,17.85
2023-05-17T10:35:59.482Z,17.89
2023-05-17T10:36:57.477Z,17.79
2023-05-17T10:37:57.470Z,17.88
2023-05-17T10:38:57.431Z,18.02
2023-05-17T10:39:57.433Z,18.29
2023-05-17T10:40:57.408Z,18.40
2023-05-17T10:42:07.141Z,18.64
2023-05-17T10:42:59.406Z,18.90
2023-05-17T10:43:57.382Z,19.06
2023-05-17T10:44:57.362Z,19.02
2023-05-17T10:45:57.349Z,19.05
2023-05-17T10:46:57.385Z,19.32
2023-05-17T10:47:59.032Z,19.42
2023-05-17T10:48:57.467Z,19.70
2023-05-17T10:49:57.322Z,20.12
2023-05-17T10:51:01.747Z,20.16
2023-05-17T10:51:58.330Z,20.31
2023-05-17T10:52:57.294Z,20.09
2023-05-17T10:53:57.276Z,19.73
2023-05-17T10:54:57.287Z,19.69
2023-05-17T10:55:57.254Z,20.03
2023-05-17T10:56:57.259Z,19.78
2023-05-17T10:57:57.230Z,19.48
2023-05-17T10:58:57.243Z,19.78
2023-05-17T10:59:57.220Z,20.38
2023-05-17T11:00:57.211Z,20.58
2023-05-17T11:01:57.196Z,20.50
2023-05-17T11:02:57.226Z,20.02
2023-05-17T11:03:57.203Z,20.10
2023-05-17T11:04:57.264Z,20.10
2023-05-17T11:05:57.258Z,20.05
2023-05-17T11:06:57.349Z,20.23
2023-05-17T11:07:57.159Z,20.24
2023-05-17T11:08:57.149Z,19.69
2023-05-17T11:09:58.151Z,19.42
2023-05-17T11:10:57.123Z,19.20
2023-05-17T11:11:57.135Z,19.39
2023-05-17T11:12:57.087Z,19.31
2023-05-17T11:13:57.133Z,18.94
2023-05-17T11:14:57.112Z,18.97
2023-05-17T11:15:57.129Z,18.91
2023-05-17T11:16:58.246Z,19.61
2023-05-17T11:17:57.198Z,20.41
2023-05-17T11:18:57.249Z,20.47
2023-05-17T11:19:57.070Z,20.42
2023-05-17T11:20:57.154Z,20.12
2023-05-17T11:21:56.997Z,20.03
2023-05-17T11:22:57.006Z,19.84
2023-05-17T11:23:56.993Z,19.80
2023-05-17T11:24:56.975Z,19.72
2023-05-17T11:26:00.417Z,19.32
2023-05-17T11:26:57.949Z,19.32
2023-05-17T11:27:56.957Z,19.36
2023-05-17T11:28:56.957Z,19.01
2023-05-17T11:29:56.944Z,18.97
2023-05-17T11:30:56.945Z,18.86
2023-05-17T11:31:56.920Z,19.57
2023-05-17T11:32:56.932Z,20.27
2023-05-17T11:33:56.907Z,20.51
2023-05-17T11:34:56.887Z,21.36
2023-05-17T11:35:56.873Z,21.51
2023-05-17T11:36:56.853Z,21.82
2023-05-17T11:37:56.838Z,22.28
2023-05-17T11:39:07.441Z,22.74
2023-05-17T11:39:58.858Z,22.69
2023-05-17T11:40:56.811Z,23.08
2023-05-17T11:41:56.808Z,22.74
2023-05-17T11:42:56.822Z,22.87
2023-05-17T11:43:56.806Z,23.15
2023-05-17T11:44:56.768Z,23.38
2023-05-17T11:45:56.776Z,23.26
2023-05-17T11:46:56.800Z,22.17
2023-05-17T11:47:56.830Z,21.04
2023-05-17T11:48:56.942Z,20.23
2023-05-17T11:49:56.804Z,19.36
2023-05-17T11:50:56.733Z,18.52
2023-05-17T11:51:56.698Z,18.34
2023-05-17T11:52:56.685Z,18.46
2023-05-17T11:53:56.723Z,18.39
2023-05-17T11:54:56.748Z,18.83
2023-05-17T11:55:56.663Z,19.88
2023-05-17T11:56:56.660Z,20.39
2023-05-17T11:57:56.645Z,20.80
2023-05-17T11:58:56.650Z,21.01
2023-05-17T11:59:56.637Z,21.23
2023-05-17T12:00:56.663Z,21.39
2023-05-17T12:01:56.641Z,21.45
2023-05-17T12:02:56.657Z,21.64
2023-05-17T12:03:56.603Z,21.74
2023-05-17T12:04:56.722Z,21.95
2023-05-17T12:05:56.588Z,22.27
2023-05-17T12:06:56.621Z,22.80
2023-05-17T12:07:56.571Z,23.24
2023-05-17T12:08:56.552Z,22.50
2023-05-17T12:09:56.553Z,21.53
2023-05-17T12:10:56.516Z,20.95
2023-05-17T12:11:56.527Z,20.09
2023-05-17T12:12:56.500Z,20.09
2023-05-17T12:13:56.498Z,20.49
2023-05-17T12:14:56.508Z,20.61
2023-05-17T12:15:56.463Z,20.99
2023-05-17T12:16:56.557Z,21.21
2023-05-17T12:17:56.587Z,21.39
2023-05-17T12:18:56.628Z,21.46
2023-05-17T12:19:56.536Z,21.51
2023-05-17T12:20:56.440Z,21.08
2023-05-17T12:21:56.454Z,20.68
2023-05-17T12:22:56.491Z,20.59
2023-05-17T12:23:56.448Z,19.87
2023-05-17T12:24:56.433Z,19.70
2023-05-17T12:25:56.415Z,19.60
2023-05-17T12:26:56.384Z,19.35
2023-05-17T12:27:56.370Z,19.39
2023-05-17T12:28:56.398Z,19.69
2023-05-17T12:29:56.403Z,20.28
2023-05-17T12:30:56.355Z,20.96
2023-05-17T12:31:56.321Z,20.87
2023-05-17T12:32:56.380Z,21.36
2023-05-17T12:33:56.351Z,21.79
2023-05-17T12:34:56.285Z,21.59
2023-05-17T12:35:56.278Z,21.46
2023-05-17T12:36:56.277Z,21.97
2023-05-17T12:37:56.272Z,21.30
2023-05-17T12:38:56.269Z,21.53
2023-05-17T12:39:56.248Z,21.85
2023-05-17T12:40:56.263Z,21.54
2023-05-17T12:41:56.216Z,20.95
2023-05-17T12:42:56.246Z,20.47
2023-05-17T12:44:06.299Z,20.34
2023-05-17T12:44:58.205Z,20.58
2023-05-17T12:45:56.212Z,20.56
2023-05-17T12:46:56.348Z,20.65
2023-05-17T12:47:56.233Z,20.79
2023-05-17T12:48:56.236Z,20.69
2023-05-17T12:49:56.173Z,20.72
2023-05-17T12:50:56.116Z,20.71
2023-05-17T12:51:56.121Z,21.21
2023-05-17T12:52:56.155Z,21.46
2023-05-17T12:53:56.119Z,21.78
2023-05-17T12:54:56.117Z,22.12
2023-05-17T12:55:56.080Z,22.01
2023-05-17T12:56:56.110Z,22.10
2023-05-17T12:57:56.076Z,22.01
2023-05-17T12:58:56.051Z,22.39
2023-05-17T12:59:56.075Z,22.83
2023-05-17T13:00:56.029Z,22.16
2023-05-17T13:01:56.023Z,22.02
2023-05-17T13:02:56.157Z,22.02
2023-05-17T13:03:56.090Z,21.94
2023-05-17T13:04:56.109Z,22.16
2023-05-17T13:05:55.982Z,22.65
2023-05-17T13:06:55.970Z,23.01
2023-05-17T13:07:55.958Z,23.45
2023-05-17T13:08:55.962Z,22.60
2023-05-17T13:09:55.933Z,22.13
2023-05-17T13:10:55.934Z,21.95
2023-05-17T13:11:55.927Z,22.01
2023-05-17T13:12:55.922Z,22.17
2023-05-17T13:13:55.953Z,22.47
2023-05-17T13:14:55.923Z,22.57
2023-05-17T13:15:55.914Z,22.54
2023-05-17T13:16:55.908Z,22.44
2023-05-17T13:17:55.952Z,22.57
2023-05-17T13:18:55.986Z,22.80
2023-05-17T13:19:55.869Z,22.97
2023-05-17T13:20:55.833Z,23.04
2023-05-17T13:21:55.828Z,23.39
2023-05-17T13:22:55.824Z,23.27
2023-05-17T13:23:55.816Z,23.12
2023-05-17T13:24:55.840Z,23.17
2023-05-17T13:25:55.823Z,23.43
2023-05-17T13:26:55.811Z,23.17
2023-05-17T13:27:55.840Z,22.74
2023-05-17T13:28:55.804Z,22.74
2023-05-17T13:29:55.783Z,22.89
2023-05-17T13:30:55.794Z,22.87
2023-05-17T13:31:55.735Z,23.19